LFBPLFBY

Guest
Details From LFBP - Pau Pyrenees
To LFBY - Dax Seyresse
Flight Number -
Tags generated
Created
Modified
Stats Distance 38 nm / 70 km
Max Altitude 4,600 ft / 1,402 m
Waypoints 3
Social Downloads 1
Likes 0
Share VATSIM

Download

Looking for another format? Having issues loading an existing format? Contact us
Advertisement - Login to hide

Notes

Basic altitude profile: - Ascent Rate: 80ft/min - Ascent Speed: 70kts - Cruise Altitude: 10000ft - Cruise Speed: 100kts - Descent Rate: 80ft/min - Descent Speed: 80kts Options: - Use NATs: yes - Use PACOTS: yes - Use low airways: yes - Use high airways: no

Route

LFBP ORTEZ LFBY

ID Type Via Altitude Latitude Longitude Leg Dist Tot Dist Heading (true) Name
O LFBP APT - 0 ft / 0 m 43.38108˚ -0.42075˚ - 0 nm - Pau Pyrenees
ORTEZ FIX - 4,600 ft / 1,402 m 43.36556˚ -0.71667˚ 12 nm 12 nm 266° / 266° -
O LFBY APT - 0 ft / 0 m 43.69000˚ -1.06700˚ 24 nm 37 nm 322° / 322° Dax Seyresse

Altitude Profile

Advertisement - Login to hide

LFBP

Details ICAO LFBP (PUF)
Name Pau Pyrenees
Region France
Timezone Europe/Paris (UTC+1.0)
Stats Elevation 616 ft / 188 m (AMSL)
Location 43.381078° -0.420752°
Runways 1
Magnetic Variation 0.094° E

METAR

LFBP 160130Z AUTO VRB03KT 9999 BKN028/// BKN035/// OVC045/// ///CB 05/04 Q1015 TEMPO 4000 -SHRA BKN006 BKN016CB

Decode

TAF

TAF AMD LFBP 160111Z 1601/1624 24005KT 9999 SCT020TCU BKN040 PROB30 TEMPO 1601/1624 4000 -SHRA BKN006 BKN016CB

Decode

Departure Runways

ID Width Length Bearing (true) Bearing (mag) Surface Threshold Offset Overrun Length
13 148 ft / 45 m 8,191 ft / 2,497 m 125.89° 125.80° Asphalt 0 ft / 0 m 0 ft / 0 m
31 148 ft / 45 m 8,191 ft / 2,497 m 305.90° 305.81° Asphalt 0 ft / 0 m 0 ft / 0 m

LFBY

Details ICAO LFBY
Name Dax Seyresse
Region France
Timezone Europe/Paris (UTC+1.0)
Stats Elevation 108 ft / 33 m (AMSL)
Location 43.689995° -1.066997°
Runways 1
Magnetic Variation 0.105° W

METAR

LFBY 160130Z AUTO 20002KT 9999 // ////// 06/05 Q1015

Decode

TAF

Not found

Destination Runways

ID Width Length Bearing (true) Bearing (mag) Surface Threshold Offset Overrun Length
08 98 ft / 30 m 2,462 ft / 751 m 74.00° 74.10° Dirt 0 ft / 0 m 0 ft / 0 m
26 98 ft / 30 m 2,462 ft / 751 m 254.00° 254.10° Dirt 0 ft / 0 m 0 ft / 0 m

Popular Alternatives